Terminal Aerodrome Forecast
Issued by NWS Sioux Falls, SD

Home | Current Version | Previous Version | Text Only | Print | Product List | Glossary On
Versions: 1 2 3 4 5 6 7 8 9 10 11 12 13 14
471
FTUS43 KFSD 210520
TAFFSD
TAF
KFSD 210520Z 2106/2206 18018G26KT P6SM SCT040 BKN150
     FM211000 17017KT P6SM OVC020
     FM211200 17014KT P6SM VCSH OVC015
     FM211500 20014KT P6SM -SHRA VCTS OVC015CB
     FM211700 27015G23KT P6SM VCSH BKN020
     FM211900 30015G23KT P6SM BKN040
     FM220000 29010KT P6SM SCT140=

USA.gov is the U.S. government's official web portal to all federal, state and local government web resources and services.